sensor_id;sensor_type;location;lat;lon;timestamp;temperature;humidity
45104;DHT22;30865;51.288;4.572;2023-03-14T00:00:08;10.10;99.90
45104;DHT22;30865;51.288;4.572;2023-03-14T00:02:36;10.00;99.90
45104;DHT22;30865;51.288;4.572;2023-03-14T00:05:01;10.20;99.90
45104;DHT22;30865;51.288;4.572;2023-03-14T00:07:40;10.20;99.90
45104;DHT22;30865;51.288;4.572;2023-03-14T00:10:12;10.20;99.90
45104;DHT22;30865;51.288;4.572;2023-03-14T00:12:39;10.20;99.90
45104;DHT22;30865;51.288;4.572;2023-03-14T00:15:05;10.10;99.90
45104;DHT22;30865;51.288;4.572;2023-03-14T00:17:34;10.10;99.90
45104;DHT22;30865;51.288;4.572;2023-03-14T00:19:59;10.10;99.90
45104;DHT22;30865;51.288;4.572;2023-03-14T00:22:34;10.20;99.90
45104;DHT22;30865;51.288;4.572;2023-03-14T00:25:02;10.20;99.90
45104;DHT22;30865;51.288;4.572;2023-03-14T00:27:28;10.10;99.90
45104;DHT22;30865;51.288;4.572;2023-03-14T00:29:53;10.10;99.90
45104;DHT22;30865;51.288;4.572;2023-03-14T00:32:19;10.10;99.90
45104;DHT22;30865;51.288;4.572;2023-03-14T00:34:44;10.10;99.90
45104;DHT22;30865;51.288;4.572;2023-03-14T00:37:10;10.20;99.90
45104;DHT22;30865;51.288;4.572;2023-03-14T00:39:35;10.20;99.90
45104;DHT22;30865;51.288;4.572;2023-03-14T00:42:01;10.20;99.90
45104;DHT22;30865;51.288;4.572;2023-03-14T00:44:27;10.20;99.90
45104;DHT22;30865;51.288;4.572;2023-03-14T00:46:52;10.20;99.90
45104;DHT22;30865;51.288;4.572;2023-03-14T00:49:18;10.20;99.90
45104;DHT22;30865;51.288;4.572;2023-03-14T00:51:43;10.30;99.90
45104;DHT22;30865;51.288;4.572;2023-03-14T00:54:09;10.20;99.90
45104;DHT22;30865;51.288;4.572;2023-03-14T00:56:34;10.20;99.90
45104;DHT22;30865;51.288;4.572;2023-03-14T00:59:00;10.20;99.90
45104;DHT22;30865;51.288;4.572;2023-03-14T01:01:25;10.30;99.90
45104;DHT22;30865;51.288;4.572;2023-03-14T01:03:52;10.20;99.90
45104;DHT22;30865;51.288;4.572;2023-03-14T01:06:20;10.20;99.90
45104;DHT22;30865;51.288;4.572;2023-03-14T01:08:46;10.20;99.90
45104;DHT22;30865;51.288;4.572;2023-03-14T01:11:15;10.20;99.90
45104;DHT22;30865;51.288;4.572;2023-03-14T01:13:41;10.20;99.90
45104;DHT22;30865;51.288;4.572;2023-03-14T01:16:09;10.20;99.90
45104;DHT22;30865;51.288;4.572;2023-03-14T01:18:36;10.20;99.90
45104;DHT22;30865;51.288;4.572;2023-03-14T01:21:03;10.10;99.90
45104;DHT22;30865;51.288;4.572;2023-03-14T01:23:29;10.20;99.90
45104;DHT22;30865;51.288;4.572;2023-03-14T01:25:55;10.10;99.90
45104;DHT22;30865;51.288;4.572;2023-03-14T01:28:20;10.10;99.90
45104;DHT22;30865;51.288;4.572;2023-03-14T01:30:46;10.20;99.90
45104;DHT22;30865;51.288;4.572;2023-03-14T01:33:11;10.10;99.90
45104;DHT22;30865;51.288;4.572;2023-03-14T01:35:38;10.10;99.90
45104;DHT22;30865;51.288;4.572;2023-03-14T01:38:04;10.10;99.90
45104;DHT22;30865;51.288;4.572;2023-03-14T01:40:29;10.10;99.90
45104;DHT22;30865;51.288;4.572;2023-03-14T01:42:56;10.20;99.90
45104;DHT22;30865;51.288;4.572;2023-03-14T01:48:26;10.00;99.90
45104;DHT22;30865;51.288;4.572;2023-03-14T01:50:53;10.10;99.90
45104;DHT22;30865;51.288;4.572;2023-03-14T01:53:19;10.10;99.90
45104;DHT22;30865;51.288;4.572;2023-03-14T01:55:48;10.10;99.90
45104;DHT22;30865;51.288;4.572;2023-03-14T01:58:16;10.10;99.90
45104;DHT22;30865;51.288;4.572;2023-03-14T02:00:42;10.10;99.90
45104;DHT22;30865;51.288;4.572;2023-03-14T02:03:11;10.20;99.90
45104;DHT22;30865;51.288;4.572;2023-03-14T02:05:39;10.10;99.90
45104;DHT22;30865;51.288;4.572;2023-03-14T02:08:08;10.10;99.90
45104;DHT22;30865;51.288;4.572;2023-03-14T02:10:45;10.10;99.90
45104;DHT22;30865;51.288;4.572;2023-03-14T02:13:11;10.10;99.90
45104;DHT22;30865;51.288;4.572;2023-03-14T02:15:38;10.00;99.90
45104;DHT22;30865;51.288;4.572;2023-03-14T02:18:04;10.00;99.90
45104;DHT22;30865;51.288;4.572;2023-03-14T02:23:00;9.80;99.90
45104;DHT22;30865;51.288;4.572;2023-03-14T02:25:48;9.80;99.90
45104;DHT22;30865;51.288;4.572;2023-03-14T02:28:16;9.80;99.90
45104;DHT22;30865;51.288;4.572;2023-03-14T02:30:42;9.70;99.90
45104;DHT22;30865;51.288;4.572;2023-03-14T02:33:13;9.80;99.90
45104;DHT22;30865;51.288;4.572;2023-03-14T02:36:00;9.80;99.90
45104;DHT22;30865;51.288;4.572;2023-03-14T02:41:17;9.80;99.90
45104;DHT22;30865;51.288;4.572;2023-03-14T02:43:43;9.90;99.90
45104;DHT22;30865;51.288;4.572;2023-03-14T02:46:11;9.90;99.90
45104;DHT22;30865;51.288;4.572;2023-03-14T02:49:04;9.90;99.90
45104;DHT22;30865;51.288;4.572;2023-03-14T02:51:32;9.90;99.90
45104;DHT22;30865;51.288;4.572;2023-03-14T02:53:58;9.90;99.90
45104;DHT22;30865;51.288;4.572;2023-03-14T02:56:24;10.00;99.90
45104;DHT22;30865;51.288;4.572;2023-03-14T02:58:49;9.90;99.90
45104;DHT22;30865;51.288;4.572;2023-03-14T03:01:15;9.90;99.90
45104;DHT22;30865;51.288;4.572;2023-03-14T03:03:40;9.80;99.90
45104;DHT22;30865;51.288;4.572;2023-03-14T03:06:06;9.80;99.90
45104;DHT22;30865;51.288;4.572;2023-03-14T03:08:31;9.90;99.90
45104;DHT22;30865;51.288;4.572;2023-03-14T03:10:57;9.90;99.90
45104;DHT22;30865;51.288;4.572;2023-03-14T03:13:23;9.90;99.90
45104;DHT22;30865;51.288;4.572;2023-03-14T03:15:48;9.80;99.90
45104;DHT22;30865;51.288;4.572;2023-03-14T03:18:14;9.80;99.90
45104;DHT22;30865;51.288;4.572;2023-03-14T03:20:40;9.80;99.90
45104;DHT22;30865;51.288;4.572;2023-03-14T03:23:06;9.90;99.90
45104;DHT22;30865;51.288;4.572;2023-03-14T03:25:32;9.90;99.90
45104;DHT22;30865;51.288;4.572;2023-03-14T03:27:57;9.90;99.90
45104;DHT22;30865;51.288;4.572;2023-03-14T03:30:23;9.80;99.90
45104;DHT22;30865;51.288;4.572;2023-03-14T03:32:48;9.70;99.90
45104;DHT22;30865;51.288;4.572;2023-03-14T03:35:14;9.80;99.90
45104;DHT22;30865;51.288;4.572;2023-03-14T03:37:39;9.70;99.90
45104;DHT22;30865;51.288;4.572;2023-03-14T03:40:05;9.70;99.90
45104;DHT22;30865;51.288;4.572;2023-03-14T03:42:35;9.60;99.90
45104;DHT22;30865;51.288;4.572;2023-03-14T03:45:01;9.70;99.90
45104;DHT22;30865;51.288;4.572;2023-03-14T03:47:26;9.60;99.90
45104;DHT22;30865;51.288;4.572;2023-03-14T03:49:52;9.50;99.90
45104;DHT22;30865;51.288;4.572;2023-03-14T03:52:18;9.50;99.90
45104;DHT22;30865;51.288;4.572;2023-03-14T03:54:43;9.60;99.90
45104;DHT22;30865;51.288;4.572;2023-03-14T03:57:09;9.60;99.90
45104;DHT22;30865;51.288;4.572;2023-03-14T03:59:34;9.70;99.90
45104;DHT22;30865;51.288;4.572;2023-03-14T04:02:00;9.60;99.90
45104;DHT22;30865;51.288;4.572;2023-03-14T04:04:25;9.40;99.90
45104;DHT22;30865;51.288;4.572;2023-03-14T04:06:51;9.40;99.90
45104;DHT22;30865;51.288;4.572;2023-03-14T04:09:16;9.40;99.90
45104;DHT22;30865;51.288;4.572;2023-03-14T04:11:42;9.40;99.90
45104;DHT22;30865;51.288;4.572;2023-03-14T04:14:07;9.50;99.90
45104;DHT22;30865;51.288;4.572;2023-03-14T04:16:33;9.40;99.90
45104;DHT22;30865;51.288;4.572;2023-03-14T04:19:00;9.30;99.90
45104;DHT22;30865;51.288;4.572;2023-03-14T04:21:26;9.30;99.90
45104;DHT22;30865;51.288;4.572;2023-03-14T04:23:51;9.30;99.90
45104;DHT22;30865;51.288;4.572;2023-03-14T04:26:17;9.30;99.90
45104;DHT22;30865;51.288;4.572;2023-03-14T04:28:43;9.40;99.90
45104;DHT22;30865;51.288;4.572;2023-03-14T04:31:17;9.30;99.90
45104;DHT22;30865;51.288;4.572;2023-03-14T04:33:43;9.30;99.90
45104;DHT22;30865;51.288;4.572;2023-03-14T04:36:09;9.30;99.90
45104;DHT22;30865;51.288;4.572;2023-03-14T04:38:35;9.30;99.90
45104;DHT22;30865;51.288;4.572;2023-03-14T04:41:00;9.40;99.90
45104;DHT22;30865;51.288;4.572;2023-03-14T04:43:26;9.30;99.90
45104;DHT22;30865;51.288;4.572;2023-03-14T04:45:57;9.30;99.90
45104;DHT22;30865;51.288;4.572;2023-03-14T04:48:23;9.30;99.90
45104;DHT22;30865;51.288;4.572;2023-03-14T04:50:49;9.30;99.90
45104;DHT22;30865;51.288;4.572;2023-03-14T04:53:15;9.20;99.90
45104;DHT22;30865;51.288;4.572;2023-03-14T04:55:41;9.20;99.90
45104;DHT22;30865;51.288;4.572;2023-03-14T04:58:07;9.30;99.90
45104;DHT22;30865;51.288;4.572;2023-03-14T05:00:32;9.30;99.90
45104;DHT22;30865;51.288;4.572;2023-03-14T05:02:58;9.20;99.90
45104;DHT22;30865;51.288;4.572;2023-03-14T05:05:24;9.20;99.90
45104;DHT22;30865;51.288;4.572;2023-03-14T05:07:49;9.10;99.90
45104;DHT22;30865;51.288;4.572;2023-03-14T05:10:15;9.20;99.90
45104;DHT22;30865;51.288;4.572;2023-03-14T05:12:40;9.20;99.90
45104;DHT22;30865;51.288;4.572;2023-03-14T05:15:06;9.20;99.90
45104;DHT22;30865;51.288;4.572;2023-03-14T05:17:33;9.00;99.90
45104;DHT22;30865;51.288;4.572;2023-03-14T05:19:58;9.00;99.90
45104;DHT22;30865;51.288;4.572;2023-03-14T05:22:24;9.00;99.90
45104;DHT22;30865;51.288;4.572;2023-03-14T05:24:50;8.90;99.90
45104;DHT22;30865;51.288;4.572;2023-03-14T05:27:15;8.80;99.90
45104;DHT22;30865;51.288;4.572;2023-03-14T05:29:41;8.90;99.90
45104;DHT22;30865;51.288;4.572;2023-03-14T05:32:06;9.00;99.90
45104;DHT22;30865;51.288;4.572;2023-03-14T05:34:32;8.90;99.90
45104;DHT22;30865;51.288;4.572;2023-03-14T05:36:57;9.00;99.90
45104;DHT22;30865;51.288;4.572;2023-03-14T05:39:23;9.10;99.90
45104;DHT22;30865;51.288;4.572;2023-03-14T05:41:49;9.10;99.90
45104;DHT22;30865;51.288;4.572;2023-03-14T05:44:14;9.10;99.90
45104;DHT22;30865;51.288;4.572;2023-03-14T05:46:40;9.10;99.90
45104;DHT22;30865;51.288;4.572;2023-03-14T05:49:05;9.20;99.90
45104;DHT22;30865;51.288;4.572;2023-03-14T05:51:31;9.10;99.90
45104;DHT22;30865;51.288;4.572;2023-03-14T05:53:56;9.20;99.90
45104;DHT22;30865;51.288;4.572;2023-03-14T05:56:22;9.10;99.90
45104;DHT22;30865;51.288;4.572;2023-03-14T05:58:47;9.20;99.90
45104;DHT22;30865;51.288;4.572;2023-03-14T06:01:13;9.00;99.90
45104;DHT22;30865;51.288;4.572;2023-03-14T06:03:38;9.00;99.90
45104;DHT22;30865;51.288;4.572;2023-03-14T06:06:04;9.00;99.90
45104;DHT22;30865;51.288;4.572;2023-03-14T06:08:29;9.00;99.90
45104;DHT22;30865;51.288;4.572;2023-03-14T06:10:56;9.00;99.90
45104;DHT22;30865;51.288;4.572;2023-03-14T06:13:22;9.00;99.90
45104;DHT22;30865;51.288;4.572;2023-03-14T06:15:47;9.00;99.90
45104;DHT22;30865;51.288;4.572;2023-03-14T06:18:13;8.90;99.90
45104;DHT22;30865;51.288;4.572;2023-03-14T06:20:39;8.90;99.90
45104;DHT22;30865;51.288;4.572;2023-03-14T06:23:05;8.90;99.90
45104;DHT22;30865;51.288;4.572;2023-03-14T06:25:32;8.90;99.90
45104;DHT22;30865;51.288;4.572;2023-03-14T06:27:58;8.90;99.90
45104;DHT22;30865;51.288;4.572;2023-03-14T06:30:23;8.80;99.90
45104;DHT22;30865;51.288;4.572;2023-03-14T06:32:49;9.00;99.90
45104;DHT22;30865;51.288;4.572;2023-03-14T06:35:14;9.00;99.90
45104;DHT22;30865;51.288;4.572;2023-03-14T06:37:40;9.00;99.90
45104;DHT22;30865;51.288;4.572;2023-03-14T06:40:06;9.00;99.90
45104;DHT22;30865;51.288;4.572;2023-03-14T06:42:32;9.00;99.90
45104;DHT22;30865;51.288;4.572;2023-03-14T06:44:58;9.10;99.90
45104;DHT22;30865;51.288;4.572;2023-03-14T06:47:23;9.00;99.90
45104;DHT22;30865;51.288;4.572;2023-03-14T06:49:49;9.00;99.90
45104;DHT22;30865;51.288;4.572;2023-03-14T06:52:14;9.00;99.90
45104;DHT22;30865;51.288;4.572;2023-03-14T06:54:40;9.10;99.90
45104;DHT22;30865;51.288;4.572;2023-03-14T06:57:05;9.10;99.90
45104;DHT22;30865;51.288;4.572;2023-03-14T06:59:31;9.10;99.90
45104;DHT22;30865;51.288;4.572;2023-03-14T07:01:56;9.10;99.90
45104;DHT22;30865;51.288;4.572;2023-03-14T07:04:22;9.20;99.90
45104;DHT22;30865;51.288;4.572;2023-03-14T07:06:47;9.20;99.90
45104;DHT22;30865;51.288;4.572;2023-03-14T07:09:14;9.10;99.90
45104;DHT22;30865;51.288;4.572;2023-03-14T07:11:40;9.20;99.90
45104;DHT22;30865;51.288;4.572;2023-03-14T07:14:05;9.20;99.90
45104;DHT22;30865;51.288;4.572;2023-03-14T07:16:31;9.40;99.90
45104;DHT22;30865;51.288;4.572;2023-03-14T07:18:58;9.30;99.90
45104;DHT22;30865;51.288;4.572;2023-03-14T07:21:24;9.40;99.90
45104;DHT22;30865;51.288;4.572;2023-03-14T07:23:49;9.60;99.90
45104;DHT22;30865;51.288;4.572;2023-03-14T07:26:15;9.70;99.90
45104;DHT22;30865;51.288;4.572;2023-03-14T07:28:41;9.90;99.90
45104;DHT22;30865;51.288;4.572;2023-03-14T07:31:07;10.00;99.90
45104;DHT22;30865;51.288;4.572;2023-03-14T07:33:33;10.20;99.80
45104;DHT22;30865;51.288;4.572;2023-03-14T07:35:59;10.20;99.20
45104;DHT22;30865;51.288;4.572;2023-03-14T07:38:24;10.30;98.90
45104;DHT22;30865;51.288;4.572;2023-03-14T07:40:50;10.40;99.90
45104;DHT22;30865;51.288;4.572;2023-03-14T07:43:16;10.50;98.80
45104;DHT22;30865;51.288;4.572;2023-03-14T07:45:44;10.60;98.40
45104;DHT22;30865;51.288;4.572;2023-03-14T07:48:10;10.50;98.90
45104;DHT22;30865;51.288;4.572;2023-03-14T07:50:35;10.60;98.50
45104;DHT22;30865;51.288;4.572;2023-03-14T07:53:01;10.70;98.30
45104;DHT22;30865;51.288;4.572;2023-03-14T07:55:26;10.90;97.50
45104;DHT22;30865;51.288;4.572;2023-03-14T07:57:52;10.80;97.30
45104;DHT22;30865;51.288;4.572;2023-03-14T08:00:17;11.20;94.40
45104;DHT22;30865;51.288;4.572;2023-03-14T08:02:43;11.20;94.90
45104;DHT22;30865;51.288;4.572;2023-03-14T08:05:09;11.30;94.10
45104;DHT22;30865;51.288;4.572;2023-03-14T08:07:35;11.30;94.40
45104;DHT22;30865;51.288;4.572;2023-03-14T08:10:00;11.30;94.10
45104;DHT22;30865;51.288;4.572;2023-03-14T08:12:26;11.20;95.20
45104;DHT22;30865;51.288;4.572;2023-03-14T08:14:51;11.30;94.00
45104;DHT22;30865;51.288;4.572;2023-03-14T08:17:17;11.30;93.70
45104;DHT22;30865;51.288;4.572;2023-03-14T08:19:42;11.20;95.60
45104;DHT22;30865;51.288;4.572;2023-03-14T08:22:08;11.20;95.70
45104;DHT22;30865;51.288;4.572;2023-03-14T08:24:34;11.30;94.90
45104;DHT22;30865;51.288;4.572;2023-03-14T08:26:59;11.30;94.30
45104;DHT22;30865;51.288;4.572;2023-03-14T08:29:25;11.10;95.20
45104;DHT22;30865;51.288;4.572;2023-03-14T08:31:50;11.10;94.90
45104;DHT22;30865;51.288;4.572;2023-03-14T08:34:16;11.10;94.20
45104;DHT22;30865;51.288;4.572;2023-03-14T08:36:42;11.00;95.20
45104;DHT22;30865;51.288;4.572;2023-03-14T08:39:08;11.30;93.30
45104;DHT22;30865;51.288;4.572;2023-03-14T08:41:34;11.50;94.40
45104;DHT22;30865;51.288;4.572;2023-03-14T08:44:08;11.70;92.30
45104;DHT22;30865;51.288;4.572;2023-03-14T08:46:34;11.90;93.90
45104;DHT22;30865;51.288;4.572;2023-03-14T08:48:59;12.10;92.50
45104;DHT22;30865;51.288;4.572;2023-03-14T08:51:25;12.30;91.20
45104;DHT22;30865;51.288;4.572;2023-03-14T08:53:51;12.50;88.80
45104;DHT22;30865;51.288;4.572;2023-03-14T08:56:17;12.30;90.50
45104;DHT22;30865;51.288;4.572;2023-03-14T08:58:42;12.30;89.30
45104;DHT22;30865;51.288;4.572;2023-03-14T09:01:10;12.20;90.00
45104;DHT22;30865;51.288;4.572;2023-03-14T09:03:35;12.20;90.00
45104;DHT22;30865;51.288;4.572;2023-03-14T09:06:03;12.30;90.30
45104;DHT22;30865;51.288;4.572;2023-03-14T09:08:29;12.40;90.20
45104;DHT22;30865;51.288;4.572;2023-03-14T09:10:55;12.70;91.70
45104;DHT22;30865;51.288;4.572;2023-03-14T09:13:20;12.60;89.00
45104;DHT22;30865;51.288;4.572;2023-03-14T09:15:51;12.40;88.60
45104;DHT22;30865;51.288;4.572;2023-03-14T09:18:16;12.10;90.70
45104;DHT22;30865;51.288;4.572;2023-03-14T09:20:45;12.20;90.70
45104;DHT22;30865;51.288;4.572;2023-03-14T09:23:10;12.00;92.50
45104;DHT22;30865;51.288;4.572;2023-03-14T09:25:36;12.00;92.80
45104;DHT22;30865;51.288;4.572;2023-03-14T09:28:01;12.10;93.10
45104;DHT22;30865;51.288;4.572;2023-03-14T09:30:27;11.90;92.20
45104;DHT22;30865;51.288;4.572;2023-03-14T09:32:55;12.00;92.50
45104;DHT22;30865;51.288;4.572;2023-03-14T09:35:22;12.00;93.20
45104;DHT22;30865;51.288;4.572;2023-03-14T09:37:47;12.00;93.10
45104;DHT22;30865;51.288;4.572;2023-03-14T09:40:19;12.10;93.10
45104;DHT22;30865;51.288;4.572;2023-03-14T09:42:47;12.20;92.20
45104;DHT22;30865;51.288;4.572;2023-03-14T09:45:28;12.20;92.00
45104;DHT22;30865;51.288;4.572;2023-03-14T09:47:55;12.40;91.30
45104;DHT22;30865;51.288;4.572;2023-03-14T09:50:23;12.50;91.70
45104;DHT22;30865;51.288;4.572;2023-03-14T09:52:51;12.30;91.30
45104;DHT22;30865;51.288;4.572;2023-03-14T09:55:20;12.20;93.80
45104;DHT22;30865;51.288;4.572;2023-03-14T09:57:48;12.30;92.00
45104;DHT22;30865;51.288;4.572;2023-03-14T10:00:18;12.50;92.30
45104;DHT22;30865;51.288;4.572;2023-03-14T10:05:20;12.20;90.80
45104;DHT22;30865;51.288;4.572;2023-03-14T10:07:46;12.10;91.30
45104;DHT22;30865;51.288;4.572;2023-03-14T10:10:21;12.10;91.30
45104;DHT22;30865;51.288;4.572;2023-03-14T10:15:35;12.30;91.00
45104;DHT22;30865;51.288;4.572;2023-03-14T10:18:03;12.30;91.40
45104;DHT22;30865;51.288;4.572;2023-03-14T10:20:46;12.30;90.20
45104;DHT22;30865;51.288;4.572;2023-03-14T10:25:40;12.30;90.60
45104;DHT22;30865;51.288;4.572;2023-03-14T10:30:51;12.50;90.00
45104;DHT22;30865;51.288;4.572;2023-03-14T10:33:24;12.60;91.00
45104;DHT22;30865;51.288;4.572;2023-03-14T10:35:57;12.60;90.00
45104;DHT22;30865;51.288;4.572;2023-03-14T10:38:27;12.50;90.70
45104;DHT22;30865;51.288;4.572;2023-03-14T10:40:54;12.60;90.80
45104;DHT22;30865;51.288;4.572;2023-03-14T10:43:26;12.50;90.70
45104;DHT22;30865;51.288;4.572;2023-03-14T10:46:09;12.60;90.40
45104;DHT22;30865;51.288;4.572;2023-03-14T10:48:36;12.60;89.90
45104;DHT22;30865;51.288;4.572;2023-03-14T10:51:10;12.60;89.10
45104;DHT22;30865;51.288;4.572;2023-03-14T10:53:59;12.40;90.50
45104;DHT22;30865;51.288;4.572;2023-03-14T10:56:27;12.50;88.60
45104;DHT22;30865;51.288;4.572;2023-03-14T10:58:56;12.60;89.90
45104;DHT22;30865;51.288;4.572;2023-03-14T11:01:48;12.40;89.50
45104;DHT22;30865;51.288;4.572;2023-03-14T11:07:30;12.00;93.10
45104;DHT22;30865;51.288;4.572;2023-03-14T11:10:35;12.40;92.30
45104;DHT22;30865;51.288;4.572;2023-03-14T11:13:32;12.30;92.10
45104;DHT22;30865;51.288;4.572;2023-03-14T11:16:27;12.30;90.40
45104;DHT22;30865;51.288;4.572;2023-03-14T11:19:17;12.10;93.10
45104;DHT22;30865;51.288;4.572;2023-03-14T11:27:13;12.10;92.80
45104;DHT22;30865;51.288;4.572;2023-03-14T11:32:45;11.70;95.10
45104;DHT22;30865;51.288;4.572;2023-03-14T11:35:19;11.50;94.70
45104;DHT22;30865;51.288;4.572;2023-03-14T11:37:54;11.30;95.00
45104;DHT22;30865;51.288;4.572;2023-03-14T11:40:23;11.20;96.10
45104;DHT22;30865;51.288;4.572;2023-03-14T11:42:59;11.10;98.40
45104;DHT22;30865;51.288;4.572;2023-03-14T11:45:31;11.20;99.90
45104;DHT22;30865;51.288;4.572;2023-03-14T11:48:20;11.00;98.20
45104;DHT22;30865;51.288;4.572;2023-03-14T11:50:52;11.00;97.50
45104;DHT22;30865;51.288;4.572;2023-03-14T11:53:36;11.10;97.80
45104;DHT22;30865;51.288;4.572;2023-03-14T11:56:11;11.10;97.20
45104;DHT22;30865;51.288;4.572;2023-03-14T11:58:45;11.00;98.00
45104;DHT22;30865;51.288;4.572;2023-03-14T12:01:13;11.00;97.80
45104;DHT22;30865;51.288;4.572;2023-03-14T12:03:46;11.00;98.30
45104;DHT22;30865;51.288;4.572;2023-03-14T12:06:24;11.20;99.40
45104;DHT22;30865;51.288;4.572;2023-03-14T12:08:59;11.00;98.10
45104;DHT22;30865;51.288;4.572;2023-03-14T12:14:26;11.10;96.70
45104;DHT22;30865;51.288;4.572;2023-03-14T12:17:40;11.30;96.80
45104;DHT22;30865;51.288;4.572;2023-03-14T12:19:40;11.50;96.10
45104;DHT22;30865;51.288;4.572;2023-03-14T12:25:21;11.40;95.70
45104;DHT22;30865;51.288;4.572;2023-03-14T12:28:03;11.30;98.50
45104;DHT22;30865;51.288;4.572;2023-03-14T12:30:38;11.30;95.50
45104;DHT22;30865;51.288;4.572;2023-03-14T12:35:46;11.70;95.60
45104;DHT22;30865;51.288;4.572;2023-03-14T12:41:20;11.50;92.80
45104;DHT22;30865;51.288;4.572;2023-03-14T12:43:46;11.50;91.80
45104;DHT22;30865;51.288;4.572;2023-03-14T12:46:21;11.00;91.20
45104;DHT22;30865;51.288;4.572;2023-03-14T12:51:40;10.90;89.80
45104;DHT22;30865;51.288;4.572;2023-03-14T12:54:33;10.60;86.60
45104;DHT22;30865;51.288;4.572;2023-03-14T12:57:21;10.50;84.80
45104;DHT22;30865;51.288;4.572;2023-03-14T13:02:26;10.40;85.50
45104;DHT22;30865;51.288;4.572;2023-03-14T13:05:10;10.40;83.70
45104;DHT22;30865;51.288;4.572;2023-03-14T13:17:49;11.10;69.30
45104;DHT22;30865;51.288;4.572;2023-03-14T13:20:37;11.30;70.40
45104;DHT22;30865;51.288;4.572;2023-03-14T13:23:03;11.10;66.00
45104;DHT22;30865;51.288;4.572;2023-03-14T13:25:34;10.90;68.80
45104;DHT22;30865;51.288;4.572;2023-03-14T13:28:01;11.00;68.80
45104;DHT22;30865;51.288;4.572;2023-03-14T13:30:35;11.20;66.80
45104;DHT22;30865;51.288;4.572;2023-03-14T13:33:04;11.00;62.70
45104;DHT22;30865;51.288;4.572;2023-03-14T13:35:42;10.90;64.10
45104;DHT22;30865;51.288;4.572;2023-03-14T13:38:20;10.90;65.70
45104;DHT22;30865;51.288;4.572;2023-03-14T13:40:46;10.90;66.50
45104;DHT22;30865;51.288;4.572;2023-03-14T13:45:44;10.70;65.30
45104;DHT22;30865;51.288;4.572;2023-03-14T13:48:12;10.60;65.50
45104;DHT22;30865;51.288;4.572;2023-03-14T13:50:54;10.80;65.80
45104;DHT22;30865;51.288;4.572;2023-03-14T13:53:20;10.90;65.20
45104;DHT22;30865;51.288;4.572;2023-03-14T13:55:46;11.00;65.40
45104;DHT22;30865;51.288;4.572;2023-03-14T13:58:21;10.80;61.70
45104;DHT22;30865;51.288;4.572;2023-03-14T14:00:58;11.10;65.80
45104;DHT22;30865;51.288;4.572;2023-03-14T14:03:25;11.00;63.10
45104;DHT22;30865;51.288;4.572;2023-03-14T14:05:50;10.80;59.00
45104;DHT22;30865;51.288;4.572;2023-03-14T14:08:16;10.50;58.90
45104;DHT22;30865;51.288;4.572;2023-03-14T14:10:42;10.40;58.00
45104;DHT22;30865;51.288;4.572;2023-03-14T14:13:12;10.60;61.00
45104;DHT22;30865;51.288;4.572;2023-03-14T14:15:45;10.30;58.90
45104;DHT22;30865;51.288;4.572;2023-03-14T14:18:14;10.30;58.20
45104;DHT22;30865;51.288;4.572;2023-03-14T14:20:43;10.10;58.10
45104;DHT22;30865;51.288;4.572;2023-03-14T14:23:35;10.30;56.80
45104;DHT22;30865;51.288;4.572;2023-03-14T14:26:01;10.10;55.90
45104;DHT22;30865;51.288;4.572;2023-03-14T14:28:34;10.00;55.30
45104;DHT22;30865;51.288;4.572;2023-03-14T14:34:00;10.20;54.50
45104;DHT22;30865;51.288;4.572;2023-03-14T14:36:29;10.40;53.50
45104;DHT22;30865;51.288;4.572;2023-03-14T14:39:00;10.30;52.70
45104;DHT22;30865;51.288;4.572;2023-03-14T14:41:30;10.30;53.00
45104;DHT22;30865;51.288;4.572;2023-03-14T14:43:57;10.30;53.10
45104;DHT22;30865;51.288;4.572;2023-03-14T14:46:27;10.20;53.10
45104;DHT22;30865;51.288;4.572;2023-03-14T14:49:06;10.10;53.40
45104;DHT22;30865;51.288;4.572;2023-03-14T14:51:44;10.20;54.00
45104;DHT22;30865;51.288;4.572;2023-03-14T14:54:16;10.20;53.70
45104;DHT22;30865;51.288;4.572;2023-03-14T14:56:48;10.20;52.60
45104;DHT22;30865;51.288;4.572;2023-03-14T14:59:27;10.30;53.70
45104;DHT22;30865;51.288;4.572;2023-03-14T15:01:59;10.40;53.30
45104;DHT22;30865;51.288;4.572;2023-03-14T15:04:25;10.40;54.00
45104;DHT22;30865;51.288;4.572;2023-03-14T15:06:52;10.50;54.10
45104;DHT22;30865;51.288;4.572;2023-03-14T15:09:18;10.40;53.70
45104;DHT22;30865;51.288;4.572;2023-03-14T15:11:45;10.50;54.20
45104;DHT22;30865;51.288;4.572;2023-03-14T15:14:11;10.60;53.30
45104;DHT22;30865;51.288;4.572;2023-03-14T15:16:36;10.60;54.40
45104;DHT22;30865;51.288;4.572;2023-03-14T15:19:14;10.70;53.70
45104;DHT22;30865;51.288;4.572;2023-03-14T15:21:40;10.50;53.80
45104;DHT22;30865;51.288;4.572;2023-03-14T15:24:08;10.60;53.90
45104;DHT22;30865;51.288;4.572;2023-03-14T15:26:34;10.90;53.50
45104;DHT22;30865;51.288;4.572;2023-03-14T15:28:59;10.80;52.60
45104;DHT22;30865;51.288;4.572;2023-03-14T15:31:25;10.80;52.50
45104;DHT22;30865;51.288;4.572;2023-03-14T15:33:50;10.80;52.50
45104;DHT22;30865;51.288;4.572;2023-03-14T15:36:24;10.70;52.30
45104;DHT22;30865;51.288;4.572;2023-03-14T15:38:51;10.60;52.70
45104;DHT22;30865;51.288;4.572;2023-03-14T15:41:18;10.60;52.90
45104;DHT22;30865;51.288;4.572;2023-03-14T15:43:44;10.80;53.10
45104;DHT22;30865;51.288;4.572;2023-03-14T15:46:10;10.80;53.30
45104;DHT22;30865;51.288;4.572;2023-03-14T15:48:36;10.70;52.90
45104;DHT22;30865;51.288;4.572;2023-03-14T15:51:02;10.80;53.20
45104;DHT22;30865;51.288;4.572;2023-03-14T15:53:27;10.80;53.00
45104;DHT22;30865;51.288;4.572;2023-03-14T15:55:53;10.60;53.50
45104;DHT22;30865;51.288;4.572;2023-03-14T15:58:20;10.50;53.80
45104;DHT22;30865;51.288;4.572;2023-03-14T16:00:46;10.60;53.70
45104;DHT22;30865;51.288;4.572;2023-03-14T16:03:13;10.50;53.90
45104;DHT22;30865;51.288;4.572;2023-03-14T16:05:39;10.90;54.20
45104;DHT22;30865;51.288;4.572;2023-03-14T16:08:05;10.80;53.30
45104;DHT22;30865;51.288;4.572;2023-03-14T16:10:32;10.60;53.00
45104;DHT22;30865;51.288;4.572;2023-03-14T16:12:58;10.60;54.40
45104;DHT22;30865;51.288;4.572;2023-03-14T16:15:24;10.70;54.40
45104;DHT22;30865;51.288;4.572;2023-03-14T16:17:53;10.80;54.10
45104;DHT22;30865;51.288;4.572;2023-03-14T16:20:18;10.60;54.70
45104;DHT22;30865;51.288;4.572;2023-03-14T16:22:45;10.80;55.00
45104;DHT22;30865;51.288;4.572;2023-03-14T16:25:11;10.90;55.00
45104;DHT22;30865;51.288;4.572;2023-03-14T16:27:37;10.90;54.70
45104;DHT22;30865;51.288;4.572;2023-03-14T16:30:03;11.00;54.50
45104;DHT22;30865;51.288;4.572;2023-03-14T16:32:29;10.60;54.80
45104;DHT22;30865;51.288;4.572;2023-03-14T16:34:55;10.60;56.40
45104;DHT22;30865;51.288;4.572;2023-03-14T16:37:23;10.50;55.70
45104;DHT22;30865;51.288;4.572;2023-03-14T16:39:49;10.50;55.90
45104;DHT22;30865;51.288;4.572;2023-03-14T16:42:14;10.50;56.50
45104;DHT22;30865;51.288;4.572;2023-03-14T16:44:40;10.20;56.60